sensor_id;sensor_type;location;lat;lon;timestamp;P1;durP1;ratioP1;P2;durP2;ratioP2
43142;SDS011;28750;59.842;17.584;2023-03-11T00:00:17;19.73;;;10.20;;
43142;SDS011;28750;59.842;17.584;2023-03-11T00:02:49;18.58;;;11.02;;
43142;SDS011;28750;59.842;17.584;2023-03-11T00:05:24;18.35;;;10.15;;
43142;SDS011;28750;59.842;17.584;2023-03-11T00:07:53;17.88;;;10.57;;
43142;SDS011;28750;59.842;17.584;2023-03-11T00:10:22;18.60;;;10.82;;
43142;SDS011;28750;59.842;17.584;2023-03-11T00:12:53;18.20;;;10.90;;
43142;SDS011;28750;59.842;17.584;2023-03-11T00:15:20;19.63;;;10.50;;
43142;SDS011;28750;59.842;17.584;2023-03-11T00:17:47;21.05;;;11.50;;
43142;SDS011;28750;59.842;17.584;2023-03-11T00:20:22;19.85;;;10.48;;
43142;SDS011;28750;59.842;17.584;2023-03-11T00:22:51;19.55;;;10.30;;
43142;SDS011;28750;59.842;17.584;2023-03-11T00:25:20;15.90;;;10.10;;
43142;SDS011;28750;59.842;17.584;2023-03-11T00:27:48;19.50;;;10.45;;
43142;SDS011;28750;59.842;17.584;2023-03-11T00:30:16;19.17;;;10.95;;
43142;SDS011;28750;59.842;17.584;2023-03-11T00:32:45;17.42;;;10.43;;
43142;SDS011;28750;59.842;17.584;2023-03-11T00:35:14;15.65;;;10.43;;
43142;SDS011;28750;59.842;17.584;2023-03-11T00:37:45;16.85;;;10.25;;
43142;SDS011;28750;59.842;17.584;2023-03-11T00:40:14;16.73;;;9.75;;
43142;SDS011;28750;59.842;17.584;2023-03-11T00:42:43;18.33;;;9.93;;
43142;SDS011;28750;59.842;17.584;2023-03-11T00:45:11;17.15;;;9.35;;
43142;SDS011;28750;59.842;17.584;2023-03-11T00:47:38;15.88;;;9.73;;
43142;SDS011;28750;59.842;17.584;2023-03-11T00:50:06;13.52;;;8.95;;
43142;SDS011;28750;59.842;17.584;2023-03-11T00:52:36;17.23;;;9.77;;
43142;SDS011;28750;59.842;17.584;2023-03-11T00:55:04;13.57;;;9.23;;
43142;SDS011;28750;59.842;17.584;2023-03-11T00:57:31;14.57;;;10.00;;
43142;SDS011;28750;59.842;17.584;2023-03-11T00:59:58;16.85;;;10.25;;
43142;SDS011;28750;59.842;17.584;2023-03-11T01:02:25;15.60;;;9.90;;
43142;SDS011;28750;59.842;17.584;2023-03-11T01:04:55;19.67;;;10.10;;
43142;SDS011;28750;59.842;17.584;2023-03-11T01:07:22;16.48;;;9.93;;
43142;SDS011;28750;59.842;17.584;2023-03-11T01:09:49;12.77;;;9.18;;
43142;SDS011;28750;59.842;17.584;2023-03-11T01:12:16;14.57;;;9.20;;
43142;SDS011;28750;59.842;17.584;2023-03-11T01:14:43;16.98;;;8.18;;
43142;SDS011;28750;59.842;17.584;2023-03-11T01:17:10;13.60;;;9.13;;
43142;SDS011;28750;59.842;17.584;2023-03-11T01:19:37;14.55;;;9.20;;
43142;SDS011;28750;59.842;17.584;2023-03-11T01:22:03;15.00;;;9.60;;
43142;SDS011;28750;59.842;17.584;2023-03-11T01:24:30;19.30;;;10.50;;
43142;SDS011;28750;59.842;17.584;2023-03-11T01:26:57;16.30;;;10.02;;
43142;SDS011;28750;59.842;17.584;2023-03-11T01:29:24;14.13;;;10.27;;
43142;SDS011;28750;59.842;17.584;2023-03-11T01:31:51;18.85;;;9.63;;
43142;SDS011;28750;59.842;17.584;2023-03-11T01:34:18;15.40;;;8.93;;
43142;SDS011;28750;59.842;17.584;2023-03-11T01:36:45;15.85;;;9.55;;
43142;SDS011;28750;59.842;17.584;2023-03-11T01:39:12;14.93;;;9.63;;
43142;SDS011;28750;59.842;17.584;2023-03-11T01:41:38;17.20;;;9.30;;
43142;SDS011;28750;59.842;17.584;2023-03-11T01:44:05;11.57;;;8.40;;
43142;SDS011;28750;59.842;17.584;2023-03-11T01:46:38;13.45;;;8.35;;
43142;SDS011;28750;59.842;17.584;2023-03-11T01:51:51;11.77;;;7.63;;
43142;SDS011;28750;59.842;17.584;2023-03-11T01:56:51;11.85;;;8.23;;
43142;SDS011;28750;59.842;17.584;2023-03-11T01:59:21;15.05;;;7.70;;
43142;SDS011;28750;59.842;17.584;2023-03-11T02:01:54;14.73;;;7.80;;
43142;SDS011;28750;59.842;17.584;2023-03-11T02:04:39;12.10;;;7.70;;
43142;SDS011;28750;59.842;17.584;2023-03-11T02:07:07;11.32;;;7.43;;
43142;SDS011;28750;59.842;17.584;2023-03-11T02:09:35;14.43;;;8.30;;
43142;SDS011;28750;59.842;17.584;2023-03-11T02:12:03;12.95;;;8.15;;
43142;SDS011;28750;59.842;17.584;2023-03-11T02:14:33;14.00;;;7.95;;
43142;SDS011;28750;59.842;17.584;2023-03-11T02:17:01;12.23;;;7.05;;
43142;SDS011;28750;59.842;17.584;2023-03-11T02:22:11;14.05;;;8.18;;
43142;SDS011;28750;59.842;17.584;2023-03-11T02:25:23;11.68;;;7.15;;
43142;SDS011;28750;59.842;17.584;2023-03-11T02:27:30;11.55;;;6.95;;
43142;SDS011;28750;59.842;17.584;2023-03-11T02:30:00;10.25;;;7.13;;
43142;SDS011;28750;59.842;17.584;2023-03-11T02:32:28;13.05;;;6.85;;
43142;SDS011;28750;59.842;17.584;2023-03-11T02:34:55;9.98;;;6.40;;
43142;SDS011;28750;59.842;17.584;2023-03-11T02:37:22;13.52;;;7.63;;
43142;SDS011;28750;59.842;17.584;2023-03-11T02:39:50;12.70;;;7.70;;
43142;SDS011;28750;59.842;17.584;2023-03-11T02:42:28;10.82;;;7.32;;
43142;SDS011;28750;59.842;17.584;2023-03-11T02:45:02;12.82;;;7.30;;
43142;SDS011;28750;59.842;17.584;2023-03-11T02:47:36;10.65;;;7.75;;
43142;SDS011;28750;59.842;17.584;2023-03-11T02:50:04;13.52;;;7.63;;
43142;SDS011;28750;59.842;17.584;2023-03-11T02:52:33;11.73;;;7.63;;
43142;SDS011;28750;59.842;17.584;2023-03-11T02:55:00;13.38;;;8.38;;
43142;SDS011;28750;59.842;17.584;2023-03-11T02:57:28;12.65;;;7.93;;
43142;SDS011;28750;59.842;17.584;2023-03-11T02:59:55;12.20;;;7.43;;
43142;SDS011;28750;59.842;17.584;2023-03-11T03:02:24;10.85;;;7.07;;
43142;SDS011;28750;59.842;17.584;2023-03-11T03:04:51;13.00;;;7.40;;
43142;SDS011;28750;59.842;17.584;2023-03-11T03:07:17;8.93;;;7.15;;
43142;SDS011;28750;59.842;17.584;2023-03-11T03:09:44;13.77;;;7.22;;
43142;SDS011;28750;59.842;17.584;2023-03-11T03:12:11;9.88;;;6.75;;
43142;SDS011;28750;59.842;17.584;2023-03-11T03:14:38;12.50;;;6.70;;
43142;SDS011;28750;59.842;17.584;2023-03-11T03:17:05;8.95;;;6.47;;
43142;SDS011;28750;59.842;17.584;2023-03-11T03:19:32;10.13;;;6.47;;
43142;SDS011;28750;59.842;17.584;2023-03-11T03:21:59;9.32;;;6.30;;
43142;SDS011;28750;59.842;17.584;2023-03-11T03:24:26;8.82;;;6.00;;
43142;SDS011;28750;59.842;17.584;2023-03-11T03:26:53;11.07;;;6.50;;
43142;SDS011;28750;59.842;17.584;2023-03-11T03:29:20;9.65;;;5.82;;
43142;SDS011;28750;59.842;17.584;2023-03-11T03:31:47;9.45;;;5.70;;
43142;SDS011;28750;59.842;17.584;2023-03-11T03:34:14;9.13;;;5.45;;
43142;SDS011;28750;59.842;17.584;2023-03-11T03:36:41;9.13;;;5.75;;
43142;SDS011;28750;59.842;17.584;2023-03-11T03:39:08;9.82;;;6.47;;
43142;SDS011;28750;59.842;17.584;2023-03-11T03:41:35;12.15;;;7.47;;
43142;SDS011;28750;59.842;17.584;2023-03-11T03:44:02;10.82;;;7.10;;
43142;SDS011;28750;59.842;17.584;2023-03-11T03:46:29;10.32;;;7.13;;
43142;SDS011;28750;59.842;17.584;2023-03-11T03:48:56;10.52;;;6.50;;
43142;SDS011;28750;59.842;17.584;2023-03-11T03:51:23;9.23;;;6.97;;
43142;SDS011;28750;59.842;17.584;2023-03-11T03:53:50;11.75;;;6.80;;
43142;SDS011;28750;59.842;17.584;2023-03-11T03:56:17;9.90;;;6.70;;
43142;SDS011;28750;59.842;17.584;2023-03-11T03:58:44;9.10;;;6.63;;
43142;SDS011;28750;59.842;17.584;2023-03-11T04:01:11;11.77;;;7.15;;
43142;SDS011;28750;59.842;17.584;2023-03-11T04:03:38;12.73;;;7.93;;
43142;SDS011;28750;59.842;17.584;2023-03-11T04:08:33;9.82;;;6.38;;
43142;SDS011;28750;59.842;17.584;2023-03-11T04:11:00;12.50;;;7.40;;
43142;SDS011;28750;59.842;17.584;2023-03-11T04:13:27;12.38;;;7.53;;
43142;SDS011;28750;59.842;17.584;2023-03-11T04:15:54;14.07;;;7.75;;
43142;SDS011;28750;59.842;17.584;2023-03-11T04:18:21;10.43;;;7.25;;
43142;SDS011;28750;59.842;17.584;2023-03-11T04:20:48;13.43;;;8.68;;
43142;SDS011;28750;59.842;17.584;2023-03-11T04:23:15;14.90;;;9.15;;
43142;SDS011;28750;59.842;17.584;2023-03-11T04:25:42;14.27;;;8.85;;
43142;SDS011;28750;59.842;17.584;2023-03-11T04:28:09;13.73;;;9.18;;
43142;SDS011;28750;59.842;17.584;2023-03-11T04:30:36;13.15;;;8.50;;
43142;SDS011;28750;59.842;17.584;2023-03-11T04:33:04;14.93;;;8.90;;
43142;SDS011;28750;59.842;17.584;2023-03-11T04:35:31;13.98;;;8.57;;
43142;SDS011;28750;59.842;17.584;2023-03-11T04:37:58;16.67;;;9.20;;
43142;SDS011;28750;59.842;17.584;2023-03-11T04:40:26;12.82;;;7.85;;
43142;SDS011;28750;59.842;17.584;2023-03-11T04:42:53;14.43;;;7.93;;
43142;SDS011;28750;59.842;17.584;2023-03-11T04:45:20;13.48;;;7.85;;
43142;SDS011;28750;59.842;17.584;2023-03-11T04:47:47;12.35;;;7.80;;
43142;SDS011;28750;59.842;17.584;2023-03-11T04:50:15;9.90;;;6.70;;
43142;SDS011;28750;59.842;17.584;2023-03-11T04:52:43;9.45;;;6.68;;
43142;SDS011;28750;59.842;17.584;2023-03-11T04:55:10;9.13;;;6.45;;
43142;SDS011;28750;59.842;17.584;2023-03-11T04:57:41;11.10;;;6.15;;
43142;SDS011;28750;59.842;17.584;2023-03-11T05:00:09;9.38;;;5.75;;
43142;SDS011;28750;59.842;17.584;2023-03-11T05:02:38;9.35;;;5.38;;
43142;SDS011;28750;59.842;17.584;2023-03-11T05:05:05;11.93;;;7.43;;
43142;SDS011;28750;59.842;17.584;2023-03-11T05:07:34;9.57;;;5.88;;
43142;SDS011;28750;59.842;17.584;2023-03-11T05:10:02;8.18;;;5.15;;
43142;SDS011;28750;59.842;17.584;2023-03-11T05:12:30;9.60;;;5.68;;
43142;SDS011;28750;59.842;17.584;2023-03-11T05:14:57;9.90;;;6.20;;
43142;SDS011;28750;59.842;17.584;2023-03-11T05:17:24;10.43;;;6.35;;
43142;SDS011;28750;59.842;17.584;2023-03-11T05:19:51;8.50;;;5.90;;
43142;SDS011;28750;59.842;17.584;2023-03-11T05:22:19;8.35;;;5.95;;
43142;SDS011;28750;59.842;17.584;2023-03-11T05:24:46;9.07;;;6.30;;
43142;SDS011;28750;59.842;17.584;2023-03-11T05:27:14;10.82;;;6.03;;
43142;SDS011;28750;59.842;17.584;2023-03-11T05:29:42;9.18;;;5.43;;
43142;SDS011;28750;59.842;17.584;2023-03-11T05:32:10;8.65;;;5.47;;
43142;SDS011;28750;59.842;17.584;2023-03-11T05:34:37;9.48;;;5.82;;
43142;SDS011;28750;59.842;17.584;2023-03-11T05:37:05;8.63;;;5.50;;
43142;SDS011;28750;59.842;17.584;2023-03-11T05:39:32;8.88;;;5.32;;
43142;SDS011;28750;59.842;17.584;2023-03-11T05:42:02;8.60;;;5.63;;
43142;SDS011;28750;59.842;17.584;2023-03-11T05:44:30;8.95;;;5.72;;
43142;SDS011;28750;59.842;17.584;2023-03-11T05:46:57;9.00;;;5.80;;
43142;SDS011;28750;59.842;17.584;2023-03-11T05:49:24;8.43;;;5.28;;
43142;SDS011;28750;59.842;17.584;2023-03-11T05:51:51;10.13;;;6.15;;
43142;SDS011;28750;59.842;17.584;2023-03-11T05:54:18;8.30;;;5.50;;
43142;SDS011;28750;59.842;17.584;2023-03-11T05:56:46;9.40;;;5.15;;
43142;SDS011;28750;59.842;17.584;2023-03-11T05:59:13;7.35;;;5.10;;
43142;SDS011;28750;59.842;17.584;2023-03-11T06:01:41;9.02;;;5.78;;
43142;SDS011;28750;59.842;17.584;2023-03-11T06:04:09;7.72;;;5.55;;
43142;SDS011;28750;59.842;17.584;2023-03-11T06:06:37;8.35;;;5.53;;
43142;SDS011;28750;59.842;17.584;2023-03-11T06:09:05;11.07;;;5.65;;
43142;SDS011;28750;59.842;17.584;2023-03-11T06:11:32;8.57;;;5.90;;
43142;SDS011;28750;59.842;17.584;2023-03-11T06:13:59;10.48;;;5.97;;
43142;SDS011;28750;59.842;17.584;2023-03-11T06:16:26;8.40;;;6.00;;
43142;SDS011;28750;59.842;17.584;2023-03-11T06:18:53;9.73;;;5.88;;
43142;SDS011;28750;59.842;17.584;2023-03-11T06:21:20;11.50;;;5.70;;
43142;SDS011;28750;59.842;17.584;2023-03-11T06:23:50;10.40;;;6.30;;
43142;SDS011;28750;59.842;17.584;2023-03-11T06:26:18;7.68;;;5.53;;
43142;SDS011;28750;59.842;17.584;2023-03-11T06:28:47;9.45;;;5.75;;
43142;SDS011;28750;59.842;17.584;2023-03-11T06:31:19;6.32;;;4.55;;
43142;SDS011;28750;59.842;17.584;2023-03-11T06:33:51;7.68;;;4.88;;
43142;SDS011;28750;59.842;17.584;2023-03-11T06:36:20;14.95;;;4.95;;
43142;SDS011;28750;59.842;17.584;2023-03-11T06:38:49;6.22;;;4.75;;
43142;SDS011;28750;59.842;17.584;2023-03-11T06:41:17;5.15;;;4.15;;
43142;SDS011;28750;59.842;17.584;2023-03-11T06:43:44;5.97;;;4.47;;
43142;SDS011;28750;59.842;17.584;2023-03-11T06:46:13;6.50;;;4.10;;
43142;SDS011;28750;59.842;17.584;2023-03-11T06:48:42;7.07;;;4.15;;
43142;SDS011;28750;59.842;17.584;2023-03-11T06:51:09;6.75;;;4.40;;
43142;SDS011;28750;59.842;17.584;2023-03-11T06:53:37;6.35;;;3.83;;
43142;SDS011;28750;59.842;17.584;2023-03-11T06:58:31;7.97;;;4.15;;
43142;SDS011;28750;59.842;17.584;2023-03-11T07:01:00;6.35;;;4.20;;
43142;SDS011;28750;59.842;17.584;2023-03-11T07:03:40;6.68;;;3.65;;
43142;SDS011;28750;59.842;17.584;2023-03-11T07:06:14;5.35;;;3.90;;
43142;SDS011;28750;59.842;17.584;2023-03-11T07:08:44;4.13;;;3.25;;
43142;SDS011;28750;59.842;17.584;2023-03-11T07:11:14;6.90;;;3.83;;
43142;SDS011;28750;59.842;17.584;2023-03-11T07:13:43;10.13;;;4.20;;
43142;SDS011;28750;59.842;17.584;2023-03-11T07:16:17;5.78;;;3.45;;
43142;SDS011;28750;59.842;17.584;2023-03-11T07:18:46;5.40;;;3.30;;
43142;SDS011;28750;59.842;17.584;2023-03-11T07:21:14;4.35;;;3.20;;
43142;SDS011;28750;59.842;17.584;2023-03-11T07:23:43;3.55;;;2.80;;
43142;SDS011;28750;59.842;17.584;2023-03-11T07:26:11;6.32;;;2.95;;
43142;SDS011;28750;59.842;17.584;2023-03-11T07:28:38;8.05;;;4.25;;
43142;SDS011;28750;59.842;17.584;2023-03-11T07:31:10;7.72;;;4.28;;
43142;SDS011;28750;59.842;17.584;2023-03-11T07:33:39;4.72;;;3.55;;
43142;SDS011;28750;59.842;17.584;2023-03-11T07:36:06;4.55;;;2.80;;
43142;SDS011;28750;59.842;17.584;2023-03-11T07:38:34;6.50;;;3.95;;
43142;SDS011;28750;59.842;17.584;2023-03-11T07:41:02;94.30;;;31.42;;
43142;SDS011;28750;59.842;17.584;2023-03-11T07:43:29;22.30;;;8.60;;
43142;SDS011;28750;59.842;17.584;2023-03-11T07:46:03;19.88;;;9.82;;
43142;SDS011;28750;59.842;17.584;2023-03-11T07:48:31;8.88;;;4.78;;
43142;SDS011;28750;59.842;17.584;2023-03-11T07:50:59;3.08;;;2.78;;
43142;SDS011;28750;59.842;17.584;2023-03-11T07:53:27;9.38;;;3.15;;
43142;SDS011;28750;59.842;17.584;2023-03-11T07:55:55;3.20;;;2.15;;
43142;SDS011;28750;59.842;17.584;2023-03-11T07:58:23;2.53;;;2.00;;
43142;SDS011;28750;59.842;17.584;2023-03-11T08:00:50;3.47;;;1.73;;
43142;SDS011;28750;59.842;17.584;2023-03-11T08:03:19;2.78;;;2.45;;
43142;SDS011;28750;59.842;17.584;2023-03-11T08:05:46;6.28;;;2.05;;
43142;SDS011;28750;59.842;17.584;2023-03-11T08:08:12;3.70;;;2.15;;
43142;SDS011;28750;59.842;17.584;2023-03-11T08:10:39;2.15;;;1.95;;
43142;SDS011;28750;59.842;17.584;2023-03-11T08:13:06;2.67;;;2.00;;
43142;SDS011;28750;59.842;17.584;2023-03-11T08:15:33;2.47;;;2.17;;
43142;SDS011;28750;59.842;17.584;2023-03-11T08:18:02;4.75;;;2.20;;
43142;SDS011;28750;59.842;17.584;2023-03-11T08:20:30;5.53;;;3.35;;
43142;SDS011;28750;59.842;17.584;2023-03-11T08:22:57;5.25;;;2.97;;
43142;SDS011;28750;59.842;17.584;2023-03-11T08:25:24;3.10;;;2.42;;
43142;SDS011;28750;59.842;17.584;2023-03-11T08:27:51;5.22;;;2.38;;
43142;SDS011;28750;59.842;17.584;2023-03-11T08:30:18;4.07;;;2.13;;
43142;SDS011;28750;59.842;17.584;2023-03-11T08:32:45;3.38;;;1.98;;
43142;SDS011;28750;59.842;17.584;2023-03-11T08:35:13;4.03;;;2.42;;
43142;SDS011;28750;59.842;17.584;2023-03-11T08:37:41;4.45;;;2.25;;
43142;SDS011;28750;59.842;17.584;2023-03-11T08:40:08;3.35;;;2.08;;
43142;SDS011;28750;59.842;17.584;2023-03-11T08:42:35;3.13;;;2.25;;
43142;SDS011;28750;59.842;17.584;2023-03-11T08:45:02;5.90;;;2.30;;
43142;SDS011;28750;59.842;17.584;2023-03-11T08:47:32;2.72;;;2.08;;
43142;SDS011;28750;59.842;17.584;2023-03-11T08:50:01;3.90;;;2.28;;
43142;SDS011;28750;59.842;17.584;2023-03-11T08:52:29;2.80;;;2.20;;
43142;SDS011;28750;59.842;17.584;2023-03-11T08:54:56;2.67;;;2.22;;
43142;SDS011;28750;59.842;17.584;2023-03-11T08:57:23;2.80;;;2.50;;
43142;SDS011;28750;59.842;17.584;2023-03-11T08:59:50;5.75;;;2.80;;
43142;SDS011;28750;59.842;17.584;2023-03-11T09:02:17;3.67;;;2.10;;
43142;SDS011;28750;59.842;17.584;2023-03-11T09:04:43;2.72;;;2.25;;
43142;SDS011;28750;59.842;17.584;2023-03-11T09:07:10;4.45;;;2.85;;
43142;SDS011;28750;59.842;17.584;2023-03-11T09:09:39;8.27;;;3.85;;
43142;SDS011;28750;59.842;17.584;2023-03-11T09:12:06;6.32;;;4.07;;
43142;SDS011;28750;59.842;17.584;2023-03-11T09:14:38;4.40;;;2.50;;
43142;SDS011;28750;59.842;17.584;2023-03-11T09:17:08;5.20;;;2.85;;
43142;SDS011;28750;59.842;17.584;2023-03-11T09:19:36;3.10;;;2.60;;
43142;SDS011;28750;59.842;17.584;2023-03-11T09:22:03;4.32;;;3.00;;
43142;SDS011;28750;59.842;17.584;2023-03-11T09:24:34;4.40;;;2.58;;
43142;SDS011;28750;59.842;17.584;2023-03-11T09:27:01;3.33;;;2.17;;
43142;SDS011;28750;59.842;17.584;2023-03-11T09:29:29;4.18;;;2.65;;
43142;SDS011;28750;59.842;17.584;2023-03-11T09:31:56;4.00;;;2.50;;
43142;SDS011;28750;59.842;17.584;2023-03-11T09:34:23;5.03;;;2.63;;
43142;SDS011;28750;59.842;17.584;2023-03-11T09:36:50;4.00;;;2.50;;
43142;SDS011;28750;59.842;17.584;2023-03-11T09:39:17;3.35;;;2.80;;
43142;SDS011;28750;59.842;17.584;2023-03-11T09:44:40;4.53;;;2.45;;
43142;SDS011;28750;59.842;17.584;2023-03-11T09:55:49;4.13;;;3.28;;
43142;SDS011;28750;59.842;17.584;2023-03-11T10:01:13;4.78;;;2.40;;
43142;SDS011;28750;59.842;17.584;2023-03-11T10:03:52;4.30;;;2.80;;
43142;SDS011;28750;59.842;17.584;2023-03-11T10:06:23;4.10;;;2.40;;
43142;SDS011;28750;59.842;17.584;2023-03-11T10:08:53;3.03;;;2.17;;
43142;SDS011;28750;59.842;17.584;2023-03-11T10:16:45;2.17;;;1.77;;
43142;SDS011;28750;59.842;17.584;2023-03-11T10:19:50;3.92;;;1.80;;
43142;SDS011;28750;59.842;17.584;2023-03-11T10:25:16;4.05;;;1.80;;
43142;SDS011;28750;59.842;17.584;2023-03-11T10:28:11;2.20;;;1.50;;
43142;SDS011;28750;59.842;17.584;2023-03-11T10:30:42;3.63;;;2.00;;
43142;SDS011;28750;59.842;17.584;2023-03-11T10:36:19;2.20;;;1.90;;
43142;SDS011;28750;59.842;17.584;2023-03-11T10:38:54;2.85;;;1.80;;
43142;SDS011;28750;59.842;17.584;2023-03-11T10:44:13;3.30;;;1.45;;
43142;SDS011;28750;59.842;17.584;2023-03-11T10:46:44;2.83;;;1.73;;
43142;SDS011;28750;59.842;17.584;2023-03-11T10:49:15;0.95;;;0.90;;
43142;SDS011;28750;59.842;17.584;2023-03-11T10:51:47;1.55;;;1.10;;
43142;SDS011;28750;59.842;17.584;2023-03-11T10:54:23;1.52;;;1.10;;
43142;SDS011;28750;59.842;17.584;2023-03-11T10:56:54;1.52;;;1.00;;
43142;SDS011;28750;59.842;17.584;2023-03-11T10:59:27;4.00;;;1.23;;
43142;SDS011;28750;59.842;17.584;2023-03-11T11:02:07;2.60;;;1.30;;
43142;SDS011;28750;59.842;17.584;2023-03-11T11:05:24;1.83;;;1.73;;
43142;SDS011;28750;59.842;17.584;2023-03-11T11:10:31;2.03;;;1.00;;
43142;SDS011;28750;59.842;17.584;2023-03-11T11:17:58;1.35;;;1.02;;
43142;SDS011;28750;59.842;17.584;2023-03-11T11:20:28;3.60;;;1.23;;
43142;SDS011;28750;59.842;17.584;2023-03-11T11:22:58;2.00;;;0.85;;
43142;SDS011;28750;59.842;17.584;2023-03-11T11:25:31;1.45;;;1.35;;
43142;SDS011;28750;59.842;17.584;2023-03-11T11:28:14;0.93;;;0.82;;
43142;SDS011;28750;59.842;17.584;2023-03-11T11:31:02;1.70;;;1.10;;
43142;SDS011;28750;59.842;17.584;2023-03-11T11:33:32;1.50;;;0.90;;
43142;SDS011;28750;59.842;17.584;2023-03-11T11:36:14;1.67;;;0.82;;
43142;SDS011;28750;59.842;17.584;2023-03-11T11:38:43;2.15;;;0.95;;
43142;SDS011;28750;59.842;17.584;2023-03-11T11:41:16;2.13;;;1.15;;
43142;SDS011;28750;59.842;17.584;2023-03-11T11:43:50;4.43;;;1.33;;
43142;SDS011;28750;59.842;17.584;2023-03-11T11:51:35;2.22;;;1.00;;
43142;SDS011;28750;59.842;17.584;2023-03-11T11:56:42;1.67;;;1.15;;
43142;SDS011;28750;59.842;17.584;2023-03-11T11:59:21;0.82;;;0.82;;
43142;SDS011;28750;59.842;17.584;2023-03-11T12:04:55;2.00;;;1.30;;
43142;SDS011;28750;59.842;17.584;2023-03-11T12:07:45;1.00;;;0.93;;
43142;SDS011;28750;59.842;17.584;2023-03-11T12:10:33;1.10;;;0.73;;
43142;SDS011;28750;59.842;17.584;2023-03-11T12:19:16;1.40;;;0.90;;
43142;SDS011;28750;59.842;17.584;2023-03-11T12:22:12;1.95;;;1.00;;
43142;SDS011;28750;59.842;17.584;2023-03-11T12:28:32;1.33;;;0.85;;
43142;SDS011;28750;59.842;17.584;2023-03-11T12:30:42;1.20;;;0.98;;
43142;SDS011;28750;59.842;17.584;2023-03-11T12:33:13;1.25;;;0.93;;
43142;SDS011;28750;59.842;17.584;2023-03-11T12:35:53;2.67;;;1.00;;
43142;SDS011;28750;59.842;17.584;2023-03-11T12:38:27;1.95;;;1.00;;
43142;SDS011;28750;59.842;17.584;2023-03-11T12:40:59;2.03;;;0.80;;
43142;SDS011;28750;59.842;17.584;2023-03-11T12:45:59;0.90;;;0.80;;
43142;SDS011;28750;59.842;17.584;2023-03-11T12:50:55;2.45;;;0.95;;
43142;SDS011;28750;59.842;17.584;2023-03-11T12:56:26;3.88;;;1.67;;
43142;SDS011;28750;59.842;17.584;2023-03-11T13:01:37;1.55;;;1.45;;
43142;SDS011;28750;59.842;17.584;2023-03-11T13:10:51;1.10;;;1.00;;
43142;SDS011;28750;59.842;17.584;2023-03-11T13:15:51;1.15;;;0.80;;
43142;SDS011;28750;59.842;17.584;2023-03-11T13:18:27;0.60;;;0.60;;
43142;SDS011;28750;59.842;17.584;2023-03-11T13:20:57;0.93;;;0.80;;
43142;SDS011;28750;59.842;17.584;2023-03-11T13:23:33;1.95;;;0.75;;
43142;SDS011;28750;59.842;17.584;2023-03-11T13:28:50;0.90;;;0.77;;
43142;SDS011;28750;59.842;17.584;2023-03-11T13:34:16;1.98;;;0.90;;
43142;SDS011;28750;59.842;17.584;2023-03-11T13:37:08;1.88;;;0.98;;
43142;SDS011;28750;59.842;17.584;2023-03-11T13:39:48;2.40;;;0.90;;
43142;SDS011;28750;59.842;17.584;2023-03-11T13:42:50;1.02;;;0.88;;
43142;SDS011;28750;59.842;17.584;2023-03-11T13:45:32;1.15;;;0.90;;
43142;SDS011;28750;59.842;17.584;2023-03-11T13:51:24;2.50;;;0.93;;
43142;SDS011;28750;59.842;17.584;2023-03-11T13:55:57;1.33;;;1.08;;
43142;SDS011;28750;59.842;17.584;2023-03-11T13:58:25;2.42;;;1.20;;
43142;SDS011;28750;59.842;17.584;2023-03-11T14:00:57;1.27;;;0.80;;
43142;SDS011;28750;59.842;17.584;2023-03-11T14:03:30;1.40;;;0.95;;
43142;SDS011;28750;59.842;17.584;2023-03-11T14:06:06;0.60;;;0.60;;
43142;SDS011;28750;59.842;17.584;2023-03-11T14:08:37;1.25;;;1.13;;
43142;SDS011;28750;59.842;17.584;2023-03-11T14:13:39;1.52;;;0.93;;
43142;SDS011;28750;59.842;17.584;2023-03-11T14:18:36;1.48;;;0.70;;
43142;SDS011;28750;59.842;17.584;2023-03-11T14:21:14;1.48;;;0.93;;
43142;SDS011;28750;59.842;17.584;2023-03-11T14:23:47;1.00;;;0.80;;
43142;SDS011;28750;59.842;17.584;2023-03-11T14:28:46;0.82;;;0.80;;
43142;SDS011;28750;59.842;17.584;2023-03-11T14:31:34;3.03;;;0.70;;
43142;SDS011;28750;59.842;17.584;2023-03-11T14:39:22;1.35;;;0.70;;
43142;SDS011;28750;59.842;17.584;2023-03-11T14:41:49;0.82;;;0.70;;
43142;SDS011;28750;59.842;17.584;2023-03-11T14:44:21;1.02;;;0.70;;
43142;SDS011;28750;59.842;17.584;2023-03-11T14:46:49;1.52;;;0.85;;
43142;SDS011;28750;59.842;17.584;2023-03-11T14:49:19;0.70;;;0.70;;
43142;SDS011;28750;59.842;17.584;2023-03-11T14:51:51;1.00;;;0.80;;
43142;SDS011;28750;59.842;17.584;2023-03-11T14:54:25;2.83;;;0.80;;
43142;SDS011;28750;59.842;17.584;2023-03-11T14:57:02;1.00;;;0.90;;
43142;SDS011;28750;59.842;17.584;2023-03-11T14:59:43;1.20;;;0.80;;
43142;SDS011;28750;59.842;17.584;2023-03-11T15:02:27;1.05;;;0.80;;
43142;SDS011;28750;59.842;17.584;2023-03-11T15:04:58;3.30;;;1.50;;
43142;SDS011;28750;59.842;17.584;2023-03-11T15:07:31;4.03;;;2.38;;
43142;SDS011;28750;59.842;17.584;2023-03-11T15:10:06;8.43;;;2.47;;
43142;SDS011;28750;59.842;17.584;2023-03-11T15:12:40;5.35;;;2.92;;
43142;SDS011;28750;59.842;17.584;2023-03-11T15:15:19;3.80;;;1.52;;
43142;SDS011;28750;59.842;17.584;2023-03-11T15:17:56;1.52;;;1.05;;
43142;SDS011;28750;59.842;17.584;2023-03-11T15:23:00;3.55;;;0.80;;
43142;SDS011;28750;59.842;17.584;2023-03-11T15:25:33;2.67;;;1.63;;
43142;SDS011;28750;59.842;17.584;2023-03-11T15:31:12;2.90;;;2.28;;
43142;SDS011;28750;59.842;17.584;2023-03-11T15:33:47;5.22;;;2.20;;
43142;SDS011;28750;59.842;17.584;2023-03-11T15:36:28;2.03;;;1.30;;
43142;SDS011;28750;59.842;17.584;2023-03-11T15:41:38;2.70;;;1.05;;
43142;SDS011;28750;59.842;17.584;2023-03-11T15:44:16;1.35;;;0.85;;
43142;SDS011;28750;59.842;17.584;2023-03-11T15:46:47;0.63;;;0.63;;
43142;SDS011;28750;59.842;17.584;2023-03-11T15:49:14;2.92;;;0.70;;
43142;SDS011;28750;59.842;17.584;2023-03-11T15:51:41;1.00;;;0.85;;
43142;SDS011;28750;59.842;17.584;2023-03-11T15:54:08;0.95;;;0.90;;
43142;SDS011;28750;59.842;17.584;2023-03-11T15:56:35;1.05;;;0.80;;
43142;SDS011;28750;59.842;17.584;2023-03-11T15:59:02;2.00;;;1.30;;
43142;SDS011;28750;59.842;17.584;2023-03-11T16:01:29;1.13;;;0.85;;
43142;SDS011;28750;59.842;17.584;2023-03-11T16:03:56;1.67;;;1.05;;
43142;SDS011;28750;59.842;17.584;2023-03-11T16:06:23;1.30;;;0.90;;
43142;SDS011;28750;59.842;17.584;2023-03-11T16:08:50;2.15;;;0.90;;
43142;SDS011;28750;59.842;17.584;2023-03-11T16:11:17;1.30;;;1.05;;
43142;SDS011;28750;59.842;17.584;2023-03-11T16:13:43;3.15;;;0.95;;
43142;SDS011;28750;59.842;17.584;2023-03-11T16:16:14;1.00;;;0.90;;
43142;SDS011;28750;59.842;17.584;2023-03-11T16:18:42;3.10;;;1.08;;
43142;SDS011;28750;59.842;17.584;2023-03-11T16:21:12;3.42;;;1.17;;
43142;SDS011;28750;59.842;17.584;2023-03-11T16:23:42;3.28;;;1.02;;
43142;SDS011;28750;59.842;17.584;2023-03-11T16:26:10;2.22;;;1.02;;
43142;SDS011;28750;59.842;17.584;2023-03-11T16:28:38;5.03;;;1.50;;
43142;SDS011;28750;59.842;17.584;2023-03-11T16:31:05;1.45;;;1.20;;
43142;SDS011;28750;59.842;17.584;2023-03-11T16:33:34;2.47;;;1.15;;
43142;SDS011;28750;59.842;17.584;2023-03-11T16:36:01;2.20;;;1.40;;
43142;SDS011;28750;59.842;17.584;2023-03-11T16:38:29;5.07;;;1.00;;
43142;SDS011;28750;59.842;17.584;2023-03-11T16:40:58;1.20;;;1.10;;
43142;SDS011;28750;59.842;17.584;2023-03-11T16:43:27;2.65;;;1.58;;
43142;SDS011;28750;59.842;17.584;2023-03-11T16:45:55;2.20;;;1.20;;